»·PEaware :: DAL250 KPDX-KSLC

DAL250 :: KPDX-KSLC

FLIGHT INFORMATION

Flight Status: Arrived
Operator:
Delta Air Lines
More flights by this operator :: More flights under this callsign
Pilot: Anonymous 13363 (13363)
Aircraft: AIRBUS A320
(A320)
More flights by this aircraft type
Origin: KPDX Portland Intl
United States
Destination: KSLC Salt Lake City Intl
United States
More flights between these airports :: More routes between these airports
Route: WHAMY4 IMB J15 BOI BYI SKEES4
File this flight plan on PilotEdge
Remarks:
Altitude:
(Current/Filed)
35,000ft
Speed:
(Current/Filed)
460kts
Departed: 10-Jan-17 08:38 PM
Arrived: 10-Jan-17 09:55 PM
Distance/Time
Traveled:
546nm/1:17
Distance/Time
To Go:
Arrived

Flight Plot

Page will automatically refresh every two minutes.


Map Options




Map Legend


Flown Route
Filed Route
Departure Airport
Arrival Airport
Navaid (VOR, NDB)
Fix

Horizontal Profiles

Position Reports

Time Latitude Longitude Heading Altitude Ground
Speed
10-Jan-17 20:19 45.590505 -122.595041 28 37ft 0kts
10-Jan-17 20:20 45.590505 -122.595041 28 37ft 0kts
10-Jan-17 20:21 45.590505 -122.595041 28 37ft 0kts
10-Jan-17 20:22 45.590505 -122.595041 28 37ft 0kts
10-Jan-17 20:23 45.590505 -122.595041 28 37ft 0kts
10-Jan-17 20:24 45.590505 -122.595041 28 37ft 0kts
10-Jan-17 20:25 45.590505 -122.595041 28 37ft 0kts
10-Jan-17 20:26 45.589786 -122.595258 300 37ft 0kts
10-Jan-17 20:27 45.589786 -122.595258 300 37ft 0kts
10-Jan-17 20:28 45.589799 -122.595289 300 37ft 0kts
10-Jan-17 20:29 45.590923 -122.598041 299 37ft 14kts
10-Jan-17 20:30 45.592593 -122.598071 29 37ft 2kts
10-Jan-17 20:31 45.594011 -122.598965 298 37ft 6kts
10-Jan-17 20:32 45.594959 -122.600996 3 37ft 0kts
10-Jan-17 20:33 45.594960 -122.600996 3 37ft 0kts
10-Jan-17 20:34 45.596215 -122.599232 117 37ft 0kts
10-Jan-17 20:35 45.596215 -122.599232 117 37ft 0kts
10-Jan-17 20:36 45.596215 -122.599232 117 37ft 0kts
10-Jan-17 20:37 45.596176 -122.599128 117 37ft 8kts
10-Jan-17 20:38 45.582895 -122.561556 104 1672ft 140kts
10-Jan-17 20:39 45.571154 -122.497136 106 3412ft 215kts
10-Jan-17 20:40 45.553807 -122.397805 108 5387ft 295kts
10-Jan-17 20:41 45.514174 -122.303003 151 8181ft 305kts
10-Jan-17 20:42 45.448794 -122.225713 141 9989ft 363kts
10-Jan-17 20:43 45.367857 -122.121901 143 11216ft 432kts
10-Jan-17 20:44 45.277870 -122.007844 140 13884ft 454kts
10-Jan-17 20:45 45.220769 -121.846525 110 16229ft 481kts
10-Jan-17 20:46 45.174522 -121.667982 109 18137ft 495kts
10-Jan-17 20:47 45.127229 -121.485740 109 19670ft 511kts
10-Jan-17 20:48 45.078441 -121.298220 109 21079ft 526kts
10-Jan-17 20:49 45.027058 -121.102211 110 22500ft 541kts
10-Jan-17 20:50 44.973420 -120.900466 109 23950ft 556kts
10-Jan-17 20:51 44.918270 -120.694804 109 25732ft 564kts
10-Jan-17 20:52 44.863941 -120.494383 109 27420ft 567kts
10-Jan-17 20:53 44.809132 -120.292421 109 28902ft 568kts
10-Jan-17 20:54 44.752544 -120.085679 110 30153ft 570kts
10-Jan-17 20:55 44.695316 -119.879341 110 31404ft 568kts
10-Jan-17 20:56 44.637488 -119.673780 112 32549ft 567kts
10-Jan-17 20:57 44.582030 -119.484756 111 33513ft 565kts
10-Jan-17 20:58 44.523994 -119.286273 112 34423ft 560kts
10-Jan-17 20:59 44.464523 -119.085030 112 34481ft 561kts
10-Jan-17 21:00 44.404484 -118.884153 112 34483ft 561kts
10-Jan-17 21:01 44.344019 -118.683448 112 34483ft 561kts
10-Jan-17 21:02 44.283283 -118.483423 112 34484ft 561kts
10-Jan-17 21:03 44.224030 -118.288693 113 34535ft 561kts
10-Jan-17 21:04 44.163084 -118.090295 113 34536ft 561kts
10-Jan-17 21:05 44.101502 -117.892076 113 34588ft 561kts
10-Jan-17 21:06 44.039338 -117.693530 113 34592ft 561kts
10-Jan-17 21:07 43.977087 -117.496205 113 34593ft 561kts
10-Jan-17 21:08 43.916161 -117.303843 113 34589ft 561kts
10-Jan-17 21:09 43.854593 -117.110792 114 34589ft 561kts
10-Jan-17 21:10 43.791399 -116.914882 114 34579ft 561kts
10-Jan-17 21:11 43.727636 -116.718644 114 34564ft 561kts
10-Jan-17 21:12 43.667063 -116.533560 114 34564ft 561kts
10-Jan-17 21:13 43.603945 -116.342040 115 34565ft 561kts
10-Jan-17 21:14 43.538658 -116.151371 123 34567ft 559kts
10-Jan-17 21:15 43.461648 -115.965664 120 34563ft 560kts
10-Jan-17 21:16 43.386146 -115.779695 120 34572ft 560kts
10-Jan-17 21:17 43.309975 -115.593279 120 34592ft 560kts
10-Jan-17 21:18 43.233667 -115.407733 120 34593ft 560kts
10-Jan-17 21:19 43.159502 -115.227204 121 34591ft 560kts
10-Jan-17 21:20 43.082601 -115.042455 121 34644ft 559kts
10-Jan-17 21:21 43.005494 -114.858492 121 34646ft 560kts
10-Jan-17 21:22 42.928163 -114.675159 121 34619ft 560kts
10-Jan-17 21:23 42.851283 -114.494274 121 34619ft 560kts
10-Jan-17 21:24 42.774715 -114.314656 121 34614ft 560kts
10-Jan-17 21:25 42.696648 -114.131962 122 34616ft 560kts
10-Jan-17 21:26 42.618113 -113.950324 122 34518ft 561kts
10-Jan-17 21:27 42.521806 -113.788056 139 33609ft 556kts
10-Jan-17 21:28 42.412366 -113.641088 140 32686ft 557kts
10-Jan-17 21:29 42.301897 -113.494059 139 31787ft 559kts
10-Jan-17 21:30 42.191315 -113.348002 140 30918ft 561kts
10-Jan-17 21:31 42.081957 -113.202997 140 29971ft 563kts
10-Jan-17 21:32 41.970232 -113.056573 140 29001ft 562kts
10-Jan-17 21:33 41.859204 -112.911918 140 27771ft 561kts
10-Jan-17 21:34 41.747674 -112.767286 140 26259ft 560kts
10-Jan-17 21:35 41.635525 -112.623364 140 24768ft 559kts
10-Jan-17 21:36 41.579692 -112.444413 74 21809ft 526kts
10-Jan-17 21:37 41.618847 -112.270087 42 19625ft 455kts
10-Jan-17 21:38 41.711590 -112.247811 319 17634ft 335kts
10-Jan-17 21:39 41.746557 -112.344595 247 15946ft 336kts
10-Jan-17 21:40 41.659949 -112.407683 211 15946ft 369kts
10-Jan-17 21:41 41.563172 -112.438777 182 15981ft 388kts
10-Jan-17 21:42 41.464753 -112.404148 148 14026ft 397kts
10-Jan-17 21:43 41.386342 -112.302160 136 12959ft 394kts
10-Jan-17 21:44 41.312355 -112.194051 135 12962ft 395kts
10-Jan-17 21:45 41.241469 -112.090923 136 12921ft 348kts
10-Jan-17 21:46 41.173178 -112.022643 183 12065ft 290kts
10-Jan-17 21:47 41.098039 -112.011462 175 11576ft 240kts
10-Jan-17 21:48 41.035459 -112.003731 175 10207ft 224kts
10-Jan-17 21:49 40.979087 -111.997008 174 9136ft 182kts
10-Jan-17 21:50 40.935372 -111.991838 173 8132ft 142kts
10-Jan-17 21:51 40.899495 -111.987078 175 6459ft 124kts
10-Jan-17 21:52 40.866203 -111.983453 174 5365ft 121kts
10-Jan-17 21:53 40.832867 -111.979974 174 4798ft 122kts
10-Jan-17 21:54 40.799701 -111.976114 174 4236ft 100kts
10-Jan-17 21:55 40.791620 -111.975741 197 4235ft 7kts
10-Jan-17 21:56 40.790278 -111.976397 219 4235ft 8kts
10-Jan-17 21:57 40.789021 -111.980119 173 4235ft 12kts
10-Jan-17 21:58 40.788022 -111.980549 276 4235ft 1kts
10-Jan-17 21:59 40.788096 -111.980858 287 4235ft 0kts
10-Jan-17 22:00 40.788096 -111.980858 287 4235ft 0kts

Navigation Log

Ident Type
1. KPDX Airport
2. IMB Navaid
3. BOI Navaid
4. BYI Navaid
5. EFFTA Fix
6. BLIDA Fix
7. BEARR Fix
8. SKEES Fix
9. KSLC Airport